Time;durP1;ratioP1;P1;durP2;ratioP2;P2;SDS_P1;SDS_P2;PMS_P1;PMS_P2;Temp;Humidity;BMP_temperature;BMP_pressure;BME280_temperature;BME280_humidity;BME280_pressure;Samples;Min_cycle;Max_cycle;Signal;HPM_P1;HPM_P2
2023/10/05 00:04:29;;;;;;;6.80;3.55;;;;;;;6.53;100.00;94857.06;5055797;28;20852;-57
2023/10/05 00:06:57;;;;;;;7.05;4.00;;;;;;;6.55;100.00;94862.94;5048953;28;20043;-57
2023/10/05 00:09:24;;;;;;;7.00;4.30;;;;;;;6.52;100.00;94859.00;5049510;28;20059;-58
2023/10/05 00:11:55;;;;;;;7.53;3.95;;;;;;;6.52;100.00;94848.09;5049385;28;20194;-57
2023/10/05 00:14:24;;;;;;;7.80;4.13;;;;;;;6.51;100.00;94848.47;5068705;28;20067;-57
2023/10/05 00:16:54;;;;;;;6.75;3.80;;;;;;;6.48;100.00;94849.19;5067101;28;20520;-58
2023/10/05 00:19:24;;;;;;;45.28;21.75;;;;;;;6.40;100.00;94856.47;5034789;28;21832;-58
2023/10/05 00:21:51;;;;;;;10.43;5.13;;;;;;;6.34;100.00;94863.41;5045936;28;20048;-58
2023/10/05 00:24:23;;;;;;;9.45;4.53;;;;;;;6.33;100.00;94867.25;5048984;28;20460;-58
2023/10/05 00:26:50;;;;;;;7.50;3.90;;;;;;;6.23;100.00;94860.47;5049413;28;20045;-59
2023/10/05 00:29:28;;;;;;;7.78;3.38;;;;;;;6.03;100.00;94864.41;5047228;28;20055;-59
2023/10/05 00:31:59;;;;;;;8.75;4.40;;;;;;;5.88;100.00;94863.38;5048885;28;20035;-58
2023/10/05 00:34:30;;;;;;;8.70;3.63;;;;;;;5.97;100.00;94861.19;5049141;28;20037;-59
2023/10/05 00:36:57;;;;;;;7.00;3.70;;;;;;;5.95;100.00;94852.59;5048776;28;20041;-58
2023/10/05 00:39:25;;;;;;;6.70;3.70;;;;;;;5.96;100.00;94852.25;5048725;28;20075;-59
2023/10/05 00:44:32;;;;;;;6.10;3.17;;;;;;;5.99;100.00;94854.22;5048342;28;21561;-59
2023/10/05 00:47:06;;;;;;;6.30;3.03;;;;;;;6.04;100.00;94855.91;5048237;28;20045;-58
2023/10/05 00:49:45;;;;;;;7.75;3.20;;;;;;;6.07;100.00;94859.81;5047812;28;20048;-59
2023/10/05 00:52:15;;;;;;;19.42;8.18;;;;;;;6.06;100.00;94855.53;5067629;28;20047;-59
2023/10/05 00:54:45;;;;;;;8.93;4.20;;;;;;;6.05;100.00;94857.44;5069162;28;20045;-59
2023/10/05 00:57:14;;;;;;;7.35;3.83;;;;;;;6.05;100.00;94851.22;5068519;28;20041;-59
2023/10/05 00:59:44;;;;;;;7.63;3.60;;;;;;;6.02;100.00;94852.75;5069033;28;20455;-59
2023/10/05 01:02:20;;;;;;;7.55;3.10;;;;;;;5.99;100.00;94851.50;5068712;28;20044;-59
2023/10/05 01:12:38;;;;;;;7.47;3.00;;;;;;;5.97;100.00;94833.97;5069301;28;21574;-59
2023/10/05 01:15:06;;;;;;;6.90;3.22;;;;;;;5.97;100.00;94829.28;5072648;28;20049;-59
2023/10/05 01:17:37;;;;;;;7.00;3.55;;;;;;;5.95;100.00;94825.38;5064015;28;20047;-59
2023/10/05 01:20:09;;;;;;;6.60;3.10;;;;;;;5.91;100.00;94827.22;5054450;28;20064;-58
2023/10/05 01:22:39;;;;;;;6.03;3.17;;;;;;;5.88;100.00;94819.78;5071368;28;20041;-58
2023/10/05 01:25:12;;;;;;;10.37;3.30;;;;;;;5.89;100.00;94819.41;5072316;28;20037;-59
2023/10/05 01:27:44;;;;;;;6.00;3.17;;;;;;;5.85;100.00;94810.38;5072697;28;20037;-60
2023/10/05 01:30:14;;;;;;;6.28;3.13;;;;;;;5.90;100.00;94806.59;5071985;28;20047;-60
2023/10/05 01:32:41;;;;;;;6.72;3.20;;;;;;;5.88;100.00;94793.31;5072770;28;20392;-60
2023/10/05 01:35:13;;;;;;;5.95;3.40;;;;;;;5.84;100.00;94789.75;5072109;28;20048;-60
2023/10/05 01:37:41;;;;;;;6.33;3.40;;;;;;;5.81;100.00;94806.81;5072204;28;20486;-60
2023/10/05 01:40:30;;;;;;;6.82;3.20;;;;;;;5.76;100.00;94802.44;5071908;28;20412;-60
2023/10/05 01:42:55;;;;;;;6.50;3.13;;;;;;;5.84;100.00;94811.53;5072015;28;20048;-60
2023/10/05 01:45:24;;;;;;;7.32;3.70;;;;;;;5.68;100.00;94800.75;5072443;28;20473;-59
2023/10/05 01:47:52;;;;;;;7.75;3.40;;;;;;;5.58;100.00;94804.06;5072474;28;20036;-59
2023/10/05 01:50:19;;;;;;;7.07;3.40;;;;;;;5.50;100.00;94805.88;5071461;28;20029;-59
2023/10/05 01:52:55;;;;;;;8.27;3.92;;;;;;;5.56;100.00;94809.09;5072071;28;20044;-59
2023/10/05 01:55:25;;;;;;;6.80;3.67;;;;;;;5.57;100.00;94811.47;5051335;28;20493;-59
2023/10/05 01:57:53;;;;;;;7.43;3.63;;;;;;;5.53;100.00;94805.16;5052113;28;20531;-59
2023/10/05 02:00:23;;;;;;;7.25;3.67;;;;;;;5.46;100.00;94804.25;5051185;28;20591;-59
2023/10/05 02:02:52;;;;;;;6.60;3.33;;;;;;;5.50;100.00;94805.88;5051351;28;20037;-59
2023/10/05 02:05:20;;;;;;;8.00;3.33;;;;;;;5.53;100.00;94802.44;5055056;28;20040;-59
2023/10/05 02:07:49;;;;;;;7.40;3.90;;;;;;;5.50;100.00;94802.38;5052472;28;20121;-59
2023/10/05 02:10:19;;;;;;;7.95;3.08;;;;;;;5.48;100.00;94800.00;5051468;28;20055;-59
2023/10/05 02:12:54;;;;;;;6.75;3.60;;;;;;;5.39;100.00;94797.53;5051787;28;20045;-59
2023/10/05 02:15:28;;;;;;;7.37;3.33;;;;;;;5.35;100.00;94779.53;5062913;28;21583;-59
2023/10/05 02:17:59;;;;;;;6.00;2.88;;;;;;;5.35;100.00;94783.06;5071503;28;20033;-59
2023/10/05 02:20:38;;;;;;;7.63;3.50;;;;;;;5.29;100.00;94770.91;5071509;28;20044;-59
2023/10/05 02:23:17;;;;;;;6.15;3.10;;;;;;;5.33;100.00;94779.09;5071163;28;20055;-59
2023/10/05 02:25:45;;;;;;;6.20;3.55;;;;;;;5.09;100.00;94769.31;5060650;28;20041;-59
2023/10/05 02:28:23;;;;;;;8.53;3.27;;;;;;;5.06;100.00;94775.50;5061716;28;20047;-59
2023/10/05 02:30:50;;;;;;;6.30;3.05;;;;;;;5.10;100.00;94782.56;5068597;28;20036;-60
2023/10/05 02:33:21;;;;;;;6.88;3.72;;;;;;;5.06;100.00;94776.28;5071121;28;20408;-59
2023/10/05 02:35:48;;;;;;;7.60;3.72;;;;;;;4.90;100.00;94781.78;5071501;28;20048;-59
2023/10/05 02:38:20;;;;;;;7.25;3.72;;;;;;;4.87;100.00;94781.72;5070347;28;20389;-59
2023/10/05 02:40:54;;;;;;;8.23;3.80;;;;;;;4.94;100.00;94792.75;5071337;28;20436;-59
2023/10/05 02:43:27;;;;;;;9.88;4.78;;;;;;;5.02;100.00;94786.31;5050429;28;20783;-60
2023/10/05 02:46:08;;;;;;;7.82;3.90;;;;;;;5.07;100.00;94780.59;5050679;28;20074;-58
2023/10/05 02:48:36;;;;;;;8.80;3.72;;;;;;;5.09;100.00;94777.47;5051234;28;20053;-59
2023/10/05 02:51:06;;;;;;;8.70;4.30;;;;;;;5.11;100.00;94777.91;5050515;28;20444;-59
2023/10/05 02:56:43;;;;;;;7.60;3.80;;;;;;;5.07;100.00;94769.69;5021823;28;20738;-59
2023/10/05 02:59:14;;;;;;;8.75;3.72;;;;;;;4.99;100.00;94776.94;5027724;28;20037;-59
2023/10/05 03:01:45;;;;;;;8.10;4.18;;;;;;;5.00;100.00;94777.72;5044418;28;20050;-60
2023/10/05 03:06:43;;;;;;;7.30;3.27;;;;;;;4.89;100.00;94787.59;5050932;28;20049;-59
2023/10/05 03:09:10;;;;;;;9.95;4.05;;;;;;;4.91;100.00;94788.00;5049903;28;20045;-59
2023/10/05 03:11:49;;;;;;;6.75;3.50;;;;;;;4.94;100.00;94781.88;5050733;28;20049;-59
2023/10/05 03:14:17;;;;;;;7.95;3.88;;;;;;;4.91;100.00;94782.56;5050357;28;20113;-59
2023/10/05 03:16:47;;;;;;;7.20;3.75;;;;;;;4.94;100.00;94774.50;5050887;28;20044;-59
2023/10/05 03:19:20;;;;;;;8.23;3.33;;;;;;;4.96;100.00;94788.50;5037072;28;20053;-59
2023/10/05 03:21:50;;;;;;;7.78;3.80;;;;;;;5.06;100.00;94780.94;5050397;28;20044;-60
2023/10/05 03:24:19;;;;;;;10.52;4.53;;;;;;;5.13;100.00;94773.72;5049840;28;20474;-60
2023/10/05 03:26:51;;;;;;;8.65;4.43;;;;;;;5.14;100.00;94771.78;5038611;28;20056;-59
2023/10/05 03:29:21;;;;;;;9.55;4.50;;;;;;;5.22;100.00;94773.47;5049020;28;20049;-59
2023/10/05 03:34:35;;;;;;;8.18;4.00;;;;;;;5.32;100.00;94767.44;5055548;28;20626;-59
2023/10/05 03:37:41;;;;;;;9.20;4.90;;;;;;;5.26;100.00;94770.81;5049688;28;20445;-59
2023/10/05 03:42:23;;;;;;;9.07;4.55;;;;;;;5.23;100.00;94771.53;5053954;28;20041;-60
2023/10/05 03:47:50;;;;;;;9.73;4.35;;;;;;;5.28;100.00;94768.53;5032366;28;20706;-60
2023/10/05 03:50:17;;;;;;;11.30;5.07;;;;;;;5.35;100.00;94768.66;5069243;28;20044;-59
2023/10/05 03:52:45;;;;;;;11.20;5.35;;;;;;;5.42;100.00;94766.06;5056648;28;20048;-59
2023/10/05 03:55:12;;;;;;;11.43;5.45;;;;;;;5.47;100.00;94767.69;5069034;28;20045;-59
2023/10/05 03:57:41;;;;;;;10.83;5.07;;;;;;;5.46;100.00;94757.97;5056895;28;20545;-59
2023/10/05 04:02:48;;;;;;;11.43;5.40;;;;;;;5.55;100.00;94761.22;5069729;28;20489;-59
2023/10/05 04:05:18;;;;;;;11.45;5.20;;;;;;;5.48;100.00;94769.28;5069256;28;20236;-59
2023/10/05 04:07:47;;;;;;;9.93;5.30;;;;;;;5.34;100.00;94764.38;5069278;28;20052;-59
2023/10/05 04:10:20;;;;;;;8.87;4.83;;;;;;;5.44;100.00;94771.16;5068993;28;20063;-59
2023/10/05 04:12:49;;;;;;;9.32;4.47;;;;;;;5.51;100.00;94774.00;5069423;28;20424;-60
2023/10/05 04:15:18;;;;;;;9.48;4.80;;;;;;;5.39;100.00;94772.22;5069035;28;20705;-59
2023/10/05 04:17:48;;;;;;;8.90;4.32;;;;;;;5.36;100.00;94771.00;5069316;28;20036;-59
2023/10/05 04:20:22;;;;;;;9.02;4.25;;;;;;;5.27;100.00;94781.34;5068953;28;20047;-59
2023/10/05 04:22:49;;;;;;;8.57;4.10;;;;;;;5.36;100.00;94775.69;5069497;28;20047;-59
2023/10/05 04:25:16;;;;;;;8.95;4.35;;;;;;;5.32;100.00;94774.81;5065176;28;20041;-59
2023/10/05 04:27:47;;;;;;;10.55;4.40;;;;;;;5.38;100.00;94776.09;5065808;28;20044;-59
2023/10/05 04:30:18;;;;;;;8.65;4.70;;;;;;;5.40;100.00;94779.25;5067425;28;20044;-58
2023/10/05 04:32:45;;;;;;;12.05;4.70;;;;;;;5.48;100.00;94778.22;5068949;28;20044;-59
2023/10/05 04:35:23;;;;;;;10.67;4.77;;;;;;;5.51;100.00;94779.44;5068648;28;20043;-59
2023/10/05 04:37:50;;;;;;;10.80;4.60;;;;;;;5.40;100.00;94777.31;5069249;28;20032;-59
2023/10/05 04:40:19;;;;;;;10.95;4.88;;;;;;;5.37;100.00;94778.03;5068410;28;20039;-59
2023/10/05 04:42:46;;;;;;;11.38;4.78;;;;;;;5.43;100.00;94794.84;5068778;28;20105;-59
2023/10/05 04:45:14;;;;;;;11.90;6.10;;;;;;;5.49;100.00;94796.13;5068404;28;20037;-59
2023/10/05 04:47:41;;;;;;;10.63;5.10;;;;;;;5.53;100.00;94797.00;5068613;28;20051;-59
2023/10/05 04:50:15;;;;;;;9.57;4.80;;;;;;;5.61;100.00;94797.91;5068104;28;20626;-59
2023/10/05 04:52:45;;;;;;;11.00;4.70;;;;;;;5.61;100.00;94811.50;5069062;28;20041;-59
2023/10/05 04:55:18;;;;;;;11.18;5.10;;;;;;;5.60;100.00;94809.94;5068360;28;20048;-59
2023/10/05 04:58:15;;;;;;;11.60;5.13;;;;;;;5.52;100.00;94814.47;5068917;28;20052;-59
2023/10/05 05:03:32;;;;;;;8.52;4.65;;;;;;;5.61;100.00;94811.50;5068227;28;20047;-59
2023/10/05 05:08:26;;;;;;;11.45;4.97;;;;;;;5.69;100.00;94798.81;5068676;28;20043;-59
2023/10/05 05:10:53;;;;;;;10.25;4.85;;;;;;;5.57;100.00;94795.13;5068429;28;20055;-59
2023/10/05 05:13:23;;;;;;;10.37;4.90;;;;;;;5.34;100.00;94788.88;5036307;28;20697;-58
2023/10/05 05:15:50;;;;;;;10.85;4.85;;;;;;;5.38;100.00;94795.16;5048905;28;20044;-59
2023/10/05 05:18:17;;;;;;;8.38;4.45;;;;;;;5.56;100.00;94801.72;5048403;28;20044;-58
2023/10/05 05:20:45;;;;;;;10.50;4.90;;;;;;;5.48;100.00;94800.00;5048622;28;20048;-60
2023/10/05 05:23:16;;;;;;;11.40;5.05;;;;;;;5.55;100.00;94799.34;5047994;28;20055;-59
2023/10/05 05:25:48;;;;;;;9.60;4.80;;;;;;;5.66;100.00;94799.56;5047776;28;20044;-58
2023/10/05 05:28:15;;;;;;;9.68;4.65;;;;;;;5.76;100.00;94793.50;5047508;28;20041;-58
2023/10/05 05:30:42;;;;;;;9.25;4.80;;;;;;;5.83;100.00;94788.16;5060335;28;20066;-59
2023/10/05 05:33:12;;;;;;;8.80;4.80;;;;;;;5.86;100.00;94781.22;5050666;28;20045;-58
2023/10/05 05:35:39;;;;;;;9.80;5.15;;;;;;;5.90;100.00;94774.66;5048761;28;20040;-59
2023/10/05 05:38:09;;;;;;;10.77;4.40;;;;;;;5.80;100.00;94786.97;5047274;28;20044;-59
2023/10/05 05:40:38;;;;;;;8.93;4.35;;;;;;;5.58;100.00;94785.81;5048799;28;20048;-59
2023/10/05 05:43:08;;;;;;;10.30;4.80;;;;;;;5.45;100.00;94792.56;5052520;28;20490;-59
2023/10/05 05:45:39;;;;;;;11.73;4.72;;;;;;;5.61;100.00;94795.16;5052961;28;20047;-59
2023/10/05 05:48:09;;;;;;;10.13;4.60;;;;;;;5.74;100.00;94802.03;5047626;28;20544;-58
2023/10/05 05:50:39;;;;;;;10.97;4.93;;;;;;;5.73;100.00;94805.09;5047023;28;20049;-59
2023/10/05 05:53:11;;;;;;;10.80;4.90;;;;;;;5.44;100.00;94793.72;5047669;28;20045;-60
2023/10/05 05:55:44;;;;;;;10.77;4.85;;;;;;;5.61;100.00;94792.44;5048485;28;20044;-59
2023/10/05 05:58:14;;;;;;;9.15;4.93;;;;;;;5.78;100.00;94796.66;5047915;28;20067;-58
2023/10/05 06:00:41;;;;;;;12.30;5.80;;;;;;;5.93;100.00;94773.94;5047122;28;20042;-59
2023/10/05 06:03:11;;;;;;;16.67;7.73;;;;;;;6.03;100.00;94772.56;5032429;28;20047;-59
2023/10/05 06:05:38;;;;;;;17.65;8.80;;;;;;;6.20;100.00;94790.34;5047629;28;20125;-59
2023/10/05 06:08:09;;;;;;;15.50;7.78;;;;;;;6.24;100.00;94791.19;5051464;28;20045;-58
2023/10/05 06:10:36;;;;;;;12.50;6.38;;;;;;;6.47;100.00;94793.09;5051869;28;20485;-59
2023/10/05 06:13:06;;;;;;;10.20;5.43;;;;;;;6.35;100.00;94792.13;5051351;28;20045;-59
2023/10/05 06:15:34;;;;;;;11.70;4.93;;;;;;;6.49;100.00;94794.28;5051903;28;20053;-59
2023/10/05 06:18:03;;;;;;;12.30;4.70;;;;;;;6.12;100.00;94794.13;5051428;28;20053;-59
2023/10/05 06:20:31;;;;;;;10.05;4.75;;;;;;;6.03;100.00;94804.47;5051449;28;20044;-59
2023/10/05 06:23:00;;;;;;;10.93;4.72;;;;;;;6.34;100.00;94812.38;5051026;28;20118;-58
2023/10/05 06:25:27;;;;;;;10.82;5.47;;;;;;;6.63;100.00;94809.28;5051468;28;20432;-59
2023/10/05 06:27:54;;;;;;;9.50;4.50;;;;;;;6.85;100.00;94804.91;5050890;28;20099;-57
2023/10/05 06:30:21;;;;;;;9.02;4.93;;;;;;;6.82;100.00;94822.78;5050797;28;20432;-59
2023/10/05 06:32:48;;;;;;;10.40;5.38;;;;;;;6.85;100.00;94805.69;5042964;28;20045;-59
2023/10/05 06:35:17;;;;;;;10.63;5.28;;;;;;;7.10;100.00;94808.75;5051082;28;20639;-59
2023/10/05 06:37:45;;;;;;;9.23;4.82;;;;;;;7.40;100.00;94806.00;5040766;28;20453;-59
2023/10/05 06:40:21;;;;;;;26.03;9.73;;;;;;;7.65;100.00;94805.47;5042525;28;20071;-59
2023/10/05 06:42:49;;;;;;;13.15;6.22;;;;;;;7.91;100.00;94811.97;5051040;28;20103;-59
2023/10/05 06:45:19;;;;;;;8.75;5.20;;;;;;;7.93;100.00;94823.31;5050897;28;20037;-59
2023/10/05 06:47:46;;;;;;;8.93;4.65;;;;;;;7.71;100.00;94825.03;5051142;28;20262;-60
2023/10/05 06:50:13;;;;;;;10.05;5.05;;;;;;;7.50;100.00;94822.84;5082535;28;20055;-59
2023/10/05 06:52:46;;;;;;;10.73;4.93;;;;;;;7.16;100.00;94833.75;5050502;28;20041;-59
2023/10/05 06:55:17;;;;;;;12.43;5.03;;;;;;;7.62;100.00;94833.50;5050589;28;20096;-59
2023/10/05 06:57:45;;;;;;;10.88;5.40;;;;;;;8.00;100.00;94832.31;5051108;28;20051;-59
2023/10/05 07:00:20;;;;;;;10.38;4.97;;;;;;;8.49;100.00;94827.72;5048931;28;20041;-59
2023/10/05 07:02:58;;;;;;;10.48;5.10;;;;;;;8.79;100.00;94815.75;5032124;28;20326;-59
2023/10/05 07:05:28;;;;;;;10.37;4.53;;;;;;;9.01;100.00;94808.47;5048133;28;20415;-59
2023/10/05 07:07:55;;;;;;;8.98;5.20;;;;;;;8.98;100.00;94806.50;5062452;28;20071;-57
2023/10/05 07:10:22;;;;;;;8.98;5.13;;;;;;;9.64;100.00;94817.34;5051155;28;20037;-59
2023/10/05 07:12:48;;;;;;;12.27;4.78;;;;;;;10.18;100.00;94820.16;5045822;28;20042;-59
2023/10/05 07:15:21;;;;;;;14.88;7.30;;;;;;;10.49;100.00;94826.88;5043418;28;20052;-59
2023/10/05 07:17:48;;;;;;;14.27;7.70;;;;;;;10.97;100.00;94820.16;5050538;28;20067;-59
2023/10/05 07:20:17;;;;;;;10.27;5.20;;;;;;;10.91;100.00;94819.75;5048145;28;20056;-59
2023/10/05 07:22:46;;;;;;;7.25;4.32;;;;;;;10.77;100.00;94819.78;5049443;28;20032;-59
2023/10/05 07:25:14;;;;;;;9.50;4.68;;;;;;;11.95;100.00;94813.06;5049103;28;20487;-59
2023/10/05 07:27:41;;;;;;;9.63;4.63;;;;;;;13.32;100.00;94815.47;5049971;28;20075;-60
2023/10/05 07:30:12;;;;;;;6.67;4.00;;;;;;;13.58;100.00;94803.75;5049950;28;20048;-59
2023/10/05 07:32:39;;;;;;;8.63;4.28;;;;;;;13.15;100.00;94803.41;5049747;28;20403;-59
2023/10/05 07:35:08;;;;;;;8.07;4.32;;;;;;;11.80;100.00;94804.88;5049832;28;20393;-59
2023/10/05 07:37:35;;;;;;;8.63;4.32;;;;;;;11.55;100.00;94815.22;5082145;28;20102;-59
2023/10/05 07:40:10;;;;;;;8.98;4.80;;;;;;;11.29;100.00;94816.50;5049617;28;20045;-59
2023/10/05 07:42:39;;;;;;;9.57;4.57;;;;;;;11.89;100.00;94821.00;5050274;28;20516;-59
2023/10/05 07:45:07;;;;;;;9.55;4.80;;;;;;;11.90;100.00;94824.50;5049717;28;20049;-60
2023/10/05 07:47:43;;;;;;;11.02;5.00;;;;;;;11.98;100.00;94823.28;5050034;28;20056;-59
2023/10/05 07:50:10;;;;;;;9.77;4.80;;;;;;;12.28;100.00;94816.41;5049530;28;20045;-59
2023/10/05 07:52:43;;;;;;;8.70;3.97;;;;;;;11.54;100.00;94819.94;5064963;28;20045;-60
2023/10/05 07:55:10;;;;;;;8.90;3.60;;;;;;;11.47;100.00;94830.19;5049599;28;20049;-59
2023/10/05 07:57:38;;;;;;;7.15;3.25;;;;;;;11.45;100.00;94835.28;5049774;28;20047;-59
2023/10/05 08:00:06;;;;;;;6.70;3.33;;;;;;;11.80;100.00;94829.63;5048699;28;20520;-59
2023/10/05 08:02:33;;;;;;;7.65;3.50;;;;;;;12.38;100.00;94835.59;5031775;28;20033;-59
2023/10/05 08:05:00;;;;;;;6.32;3.50;;;;;;;12.91;100.00;94838.31;5039568;28;20045;-59
2023/10/05 08:07:26;;;;;;;5.73;3.20;;;;;;;12.72;100.00;94842.41;5049765;28;20409;-60
2023/10/05 08:09:55;;;;;;;7.97;3.20;;;;;;;13.41;100.00;94840.56;5049560;28;20044;-60
2023/10/05 08:12:21;;;;;;;6.72;3.38;;;;;;;13.61;100.00;94842.72;5048904;28;20360;-60
2023/10/05 08:14:48;;;;;;;8.55;3.40;;;;;;;14.15;100.00;94840.03;5049877;28;20051;-59
2023/10/05 08:17:17;;;;;;;6.57;3.38;;;;;;;14.88;100.00;94846.81;5049126;28;20547;-60
2023/10/05 08:19:44;;;;;;;6.17;3.30;;;;;;;15.18;100.00;94853.41;5081017;28;20060;-60
2023/10/05 08:22:11;;;;;;;7.15;3.67;;;;;;;15.01;100.00;94849.78;5048527;28;20059;-60
2023/10/05 08:24:38;;;;;;;6.40;3.33;;;;;;;15.11;100.00;94845.22;5049140;28;20056;-60
2023/10/05 08:27:06;;;;;;;7.10;3.30;;;;;;;14.12;100.00;94847.16;5048660;28;20401;-60
2023/10/05 08:29:34;;;;;;;8.05;3.60;;;;;;;15.21;100.00;94857.31;5049383;28;20040;-60
2023/10/05 08:32:01;;;;;;;5.80;3.03;;;;;;;16.42;100.00;94848.56;5048745;28;20071;-61
2023/10/05 08:34:32;;;;;;;8.80;3.40;;;;;;;17.54;95.40;94857.69;5049308;28;20037;-61
2023/10/05 08:37:01;;;;;;;6.07;3.13;;;;;;;18.29;90.18;94852.81;5049133;28;20083;-60
2023/10/05 08:39:34;;;;;;;5.82;2.92;;;;;;;18.55;83.71;94855.59;5048848;28;20364;-60
2023/10/05 08:42:07;;;;;;;7.63;3.28;;;;;;;19.27;80.41;94856.84;5048763;28;20062;-60
2023/10/05 08:44:41;;;;;;;6.13;2.90;;;;;;;18.82;81.36;94852.38;5048917;28;20075;-60
2023/10/05 08:47:10;;;;;;;6.43;2.78;;;;;;;19.68;77.23;94855.06;5048472;28;20051;-59
2023/10/05 08:49:38;;;;;;;6.10;2.78;;;;;;;20.21;73.97;94848.78;5036474;28;20049;-60
2023/10/05 08:52:13;;;;;;;5.25;2.80;;;;;;;20.10;69.59;94854.75;5048421;28;20603;-60
2023/10/05 08:54:43;;;;;;;7.85;2.92;;;;;;;20.02;70.90;94856.25;5049192;28;20066;-59
2023/10/05 08:57:10;;;;;;;7.67;3.40;;;;;;;16.96;93.00;94859.19;5048354;28;20045;-60
2023/10/05 08:59:47;;;;;;;6.20;3.10;;;;;;;17.37;93.29;94856.97;5049133;28;20509;-60
2023/10/05 09:02:21;;;;;;;7.82;3.75;;;;;;;18.22;85.99;94863.34;5032657;28;20079;-59
2023/10/05 09:04:59;;;;;;;5.72;2.80;;;;;;;19.29;78.78;94870.31;5037709;28;20405;-60
2023/10/05 09:07:37;;;;;;;7.18;2.75;;;;;;;19.37;78.25;94857.72;5048156;28;21889;-60
2023/10/05 09:10:07;;;;;;;6.40;2.80;;;;;;;19.56;76.02;94855.88;5041493;28;20131;-59
2023/10/05 09:12:35;;;;;;;5.93;2.70;;;;;;;19.95;73.58;94862.09;5062762;28;20051;-60
2023/10/05 09:15:19;;;;;;;6.93;3.00;;;;;;;19.78;74.32;94866.28;5050644;28;20049;-60
2023/10/05 09:17:58;;;;;;;7.13;2.60;;;;;;;20.75;69.90;94863.47;5035763;28;20086;-59
2023/10/05 09:20:30;;;;;;;5.82;2.70;;;;;;;21.77;68.51;94870.03;5045691;28;20663;-60
2023/10/05 09:23:04;;;;;;;6.43;2.63;;;;;;;21.66;66.80;94870.50;5036865;28;20060;-60
2023/10/05 09:25:32;;;;;;;6.50;2.60;;;;;;;21.17;64.70;94862.19;5045449;28;20039;-60
2023/10/05 09:28:07;;;;;;;6.88;2.80;;;;;;;22.69;62.72;94858.69;5048289;28;20498;-60
2023/10/05 09:30:46;;;;;;;5.90;2.85;;;;;;;22.50;61.29;94857.22;5049073;28;20056;-60
2023/10/05 09:33:18;;;;;;;7.22;3.20;;;;;;;22.13;62.07;94851.69;5049218;28;20115;-60
2023/10/05 09:35:46;;;;;;;6.30;3.13;;;;;;;21.54;63.63;94849.84;5083524;28;20045;-61
2023/10/05 09:38:14;;;;;;;5.85;2.63;;;;;;;25.76;52.77;94839.25;5038704;28;20061;-61
2023/10/05 09:40:41;;;;;;;5.82;2.70;;;;;;;26.20;45.31;94835.41;5052353;28;20379;-61
2023/10/05 09:43:10;;;;;;;7.22;3.30;;;;;;;20.06;62.35;94842.19;5052096;28;20052;-60
2023/10/05 09:45:43;;;;;;;5.40;2.45;;;;;;;24.57;55.03;94833.22;5052406;28;20402;-60
2023/10/05 09:48:11;;;;;;;5.13;2.40;;;;;;;26.33;49.03;94826.56;5052042;28;20041;-61
2023/10/05 09:50:38;;;;;;;5.57;2.30;;;;;;;29.31;39.73;94826.16;5052144;28;20084;-60
2023/10/05 09:53:06;;;;;;;5.47;2.65;;;;;;;27.66;39.23;94803.91;5051739;28;20045;-60
2023/10/05 09:55:35;;;;;;;4.97;2.90;;;;;;;21.82;51.25;94815.56;5052050;28;20375;-60
2023/10/05 09:58:12;;;;;;;6.40;3.30;;;;;;;20.33;62.53;94811.69;5051692;28;20049;-60
2023/10/05 10:03:06;;;;;;;5.38;2.95;;;;;;;20.62;60.84;94807.78;5051791;28;20048;-60
2023/10/05 10:05:38;;;;;;;5.57;2.70;;;;;;;23.70;51.23;94811.75;5051690;28;20059;-60
2023/10/05 10:08:13;;;;;;;6.05;2.90;;;;;;;19.39;65.13;94826.66;5051313;28;20482;-60
2023/10/05 10:11:06;;;;;;;6.53;2.90;;;;;;;19.28;64.36;94821.47;5051984;28;20049;-60
2023/10/05 10:13:37;;;;;;;4.57;2.57;;;;;;;22.50;55.64;94815.28;5050905;28;20726;-60
2023/10/05 10:16:21;;;;;;;5.22;2.80;;;;;;;19.71;61.73;94828.34;5051535;28;20047;-60
2023/10/05 10:19:19;;;;;;;6.43;2.90;;;;;;;19.97;63.90;94820.63;5051668;28;20052;-60
2023/10/05 10:21:49;;;;;;;5.03;2.90;;;;;;;20.20;60.01;94827.69;5050934;28;20812;-60
2023/10/05 10:24:18;;;;;;;5.15;2.50;;;;;;;20.26;62.19;94830.69;5051543;28;20359;-60
2023/10/05 10:26:53;;;;;;;5.23;2.83;;;;;;;21.11;57.18;94832.09;5051763;28;20048;-60
2023/10/05 10:29:51;;;;;;;5.30;2.95;;;;;;;18.40;68.66;94844.13;5063080;28;20048;-60
2023/10/05 10:32:20;;;;;;;6.05;3.17;;;;;;;20.02;61.45;94841.53;5055912;28;20498;-60
2023/10/05 10:34:55;;;;;;;6.38;2.92;;;;;;;21.81;55.69;94831.56;5057479;28;20045;-60
2023/10/05 10:37:54;;;;;;;8.82;3.20;;;;;;;20.00;61.39;94832.84;5050520;28;20226;-60
2023/10/05 10:43:06;;;;;;;6.28;3.55;;;;;;;17.78;72.85;94822.91;5051332;28;20055;-59
2023/10/05 10:45:42;;;;;;;6.45;3.33;;;;;;;18.44;70.62;94828.13;5049847;28;20449;-59
2023/10/05 10:48:28;;;;;;;5.28;2.95;;;;;;;20.07;65.53;94825.00;5050484;28;20052;-59
2023/10/05 10:51:00;;;;;;;6.78;3.10;;;;;;;20.29;64.14;94827.00;5050805;28;20067;-60
2023/10/05 10:53:31;;;;;;;6.20;2.83;;;;;;;18.92;68.45;94844.94;5051203;28;20313;-60
2023/10/05 10:56:17;;;;;;;5.72;2.90;;;;;;;19.81;68.35;94843.88;5050620;28;20067;-59
2023/10/05 10:58:44;;;;;;;6.03;3.00;;;;;;;18.19;80.45;94840.03;5051364;28;20041;-59
2023/10/05 11:01:28;;;;;;;5.88;2.90;;;;;;;19.30;76.23;94838.50;5050422;28;20110;-59
2023/10/05 11:03:56;;;;;;;4.85;2.55;;;;;;;19.45;72.07;94831.19;5050326;28;20055;-59
2023/10/05 11:06:26;;;;;;;6.00;2.77;;;;;;;19.39;74.23;94838.56;5050946;28;20041;-59
2023/10/05 11:08:53;;;;;;;5.57;2.70;;;;;;;21.91;59.79;94835.91;5050786;28;20049;-60
2023/10/05 11:11:20;;;;;;;4.72;2.47;;;;;;;22.81;54.38;94831.75;5081704;28;20746;-59
2023/10/05 11:13:57;;;;;;;6.03;2.83;;;;;;;21.82;55.31;94830.31;5050713;28;20049;-59
2023/10/05 11:16:43;;;;;;;5.90;2.60;;;;;;;22.07;55.11;94829.19;5057040;28;20814;-59
2023/10/05 11:19:17;;;;;;;5.37;2.60;;;;;;;21.89;53.75;94827.19;5041726;28;20056;-60
2023/10/05 11:22:04;;;;;;;5.47;2.47;;;;;;;22.18;52.20;94813.94;5038762;28;20040;-60
2023/10/05 11:24:32;;;;;;;6.78;2.45;;;;;;;21.60;53.11;94810.16;5050569;28;20439;-60
2023/10/05 11:29:29;;;;;;;6.68;3.13;;;;;;;20.54;56.16;94807.28;5050391;28;20047;-60
2023/10/05 11:32:12;;;;;;;5.80;2.90;;;;;;;19.50;63.37;94804.81;5050355;28;20429;-59
2023/10/05 11:35:13;;;;;;;6.55;3.25;;;;;;;18.29;69.30;94802.78;5039287;28;20075;-59
2023/10/05 11:37:58;;;;;;;7.90;3.22;;;;;;;17.39;77.78;94795.50;5049944;28;20045;-59
2023/10/05 11:40:31;;;;;;;5.97;3.40;;;;;;;16.87;79.49;94794.47;5056518;28;21581;-59
2023/10/05 11:43:04;;;;;;;6.50;2.80;;;;;;;17.23;83.16;94805.41;5036743;28;20053;-59
2023/10/05 11:45:33;;;;;;;6.07;3.20;;;;;;;18.26;72.35;94803.66;5049995;28;20424;-59
2023/10/05 11:48:11;;;;;;;8.63;2.90;;;;;;;18.16;67.56;94807.56;5049738;28;20055;-60
2023/10/05 11:50:51;;;;;;;7.28;3.00;;;;;;;17.45;72.42;94802.06;5050112;28;20041;-60
2023/10/05 11:53:23;;;;;;;6.15;2.47;;;;;;;18.22;66.83;94797.44;5049092;28;20892;-59
2023/10/05 11:55:50;;;;;;;5.78;2.65;;;;;;;18.06;64.95;94800.31;5049507;28;20044;-59
2023/10/05 11:58:18;;;;;;;7.40;2.20;;;;;;;18.47;54.24;94805.03;5048752;28;20045;-60
2023/10/05 12:00:45;;;;;;;6.47;2.00;;;;;;;18.39;52.95;94800.13;5049946;28;20037;-60
2023/10/05 12:03:12;;;;;;;4.95;2.10;;;;;;;18.51;52.94;94808.47;5049287;28;20048;-60
2023/10/05 12:05:39;;;;;;;5.97;2.22;;;;;;;18.58;56.34;94804.66;5049995;28;20082;-59
2023/10/05 12:08:07;;;;;;;6.35;2.50;;;;;;;18.76;54.40;94804.09;5049082;28;20059;-59
2023/10/05 12:10:34;;;;;;;8.40;2.23;;;;;;;18.24;53.94;94813.69;5049581;28;20041;-59
2023/10/05 12:13:02;;;;;;;7.22;2.90;;;;;;;17.24;55.14;94804.16;5048794;28;20444;-60
2023/10/05 12:15:32;;;;;;;5.80;2.60;;;;;;;17.94;54.54;94821.31;5049572;28;20041;-60
2023/10/05 12:17:59;;;;;;;6.60;2.70;;;;;;;17.36;54.82;94827.63;5036940;28;20069;-59
2023/10/05 12:20:27;;;;;;;6.22;2.70;;;;;;;16.96;56.03;94825.91;5030819;28;20497;-59
2023/10/05 12:22:56;;;;;;;6.90;2.53;;;;;;;17.12;55.33;94819.56;5049524;28;20098;-59
2023/10/05 12:25:27;;;;;;;7.45;2.70;;;;;;;16.81;54.91;94807.25;5056351;28;20711;-60
2023/10/05 12:27:55;;;;;;;7.72;2.80;;;;;;;16.29;58.13;94811.66;5048648;28;20482;-59
2023/10/05 12:30:21;;;;;;;6.40;3.17;;;;;;;16.02;61.64;94792.47;5049207;28;20101;-59
2023/10/05 12:32:51;;;;;;;5.72;2.65;;;;;;;17.48;59.79;94787.28;5064583;28;20455;-60